Search for airport 
image banner adimage banner adimage banner ad
image banner ad

10PN - One Meridian Plaza

Located in Philadelphia, United States

ICAO - 10PN, IATA -

Data provided by Airmate  

General information

Coordinates: N39°55'50" W75°14'39"
Elevation is 560 feet MSL.
Magnetic variation is -11° East
View others Airports in Pennsylvania

Operational data

Special qualification required
Current time UTC:
Current local time:
Weather at : KPHL - Philadelphia Intl ( 7 km )
METAR: KPHL 182254Z 22012KT 10SM CLR 26/06 A3025 RMK AO2 SLP242 T02560061
TAF: KPHL 182041Z 1821/1924 23010KT P6SM SKC FM190300 VRB04KT P6SM SKC
View NOTAMs / SUP AIP / TFR affecting this airport [VIEW]
Communications frequencies: [VIEW]

Runways:

Airport contact information

Address: Philadelphia United States

Satellite view of 10PN